Time,TemperatureF,DewpointF,PressureIn,WindDirection,WindDirectionDegrees,WindSpeedMPH,WindSpeedGustMPH,Humidity,HourlyPrecipIn,Conditions,Clouds,dailyrainin,SoftwareType,DateUTC
2013-05-13 00:00:00,44.0,34.5,30.07,SW,218,0.0,3.0,69,0.00,,---,0.00,VWS V14.00,2013-05-13 04:00:00,
2013-05-13 00:01:00,44.2,34.3,30.07,SW,218,0.0,3.0,68,0.00,,---,0.00,VWS V14.00,2013-05-13 04:01:00,
2013-05-13 00:04:00,44.1,34.6,30.07,SW,218,2.0,3.0,69,0.00,,---,0.00,VWS V14.00,2013-05-13 04:04:00,
2013-05-13 00:05:00,44.1,34.6,30.07,SW,218,1.0,3.0,69,0.00,,---,0.00,VWS V14.00,2013-05-13 04:05:00,
2013-05-13 00:10:00,43.8,34.3,30.07,SW,218,0.0,2.0,69,0.00,,---,0.00,VWS V14.00,2013-05-13 04:10:00,
2013-05-13 00:15:00,43.7,34.2,30.07,SW,218,1.0,3.0,69,0.00,,---,0.00,VWS V14.00,2013-05-13 04:15:00,
2013-05-13 00:20:00,43.6,34.1,30.07,SW,218,2.0,3.0,69,0.00,,---,0.00,VWS V14.00,2013-05-13 04:20:00,
2013-05-13 00:25:00,43.5,34.4,30.07,SW,218,2.0,3.0,70,0.00,,---,0.00,VWS V14.00,2013-05-13 04:25:00,
2013-05-13 00:30:00,43.2,34.5,30.07,SW,218,0.0,3.0,71,0.00,,---,0.00,VWS V14.00,2013-05-13 04:30:00,
2013-05-13 00:35:00,42.9,34.2,30.07,SW,218,0.0,3.0,71,0.00,,---,0.00,VWS V14.00,2013-05-13 04:35:00,
2013-05-13 00:40:00,42.8,33.3,30.07,SW,218,2.0,3.0,69,0.00,,---,0.00,VWS V14.00,2013-05-13 04:40:00,
2013-05-13 00:45:00,42.6,33.5,30.07,SW,218,0.0,3.0,70,0.00,,---,0.00,VWS V14.00,2013-05-13 04:45:00,
2013-05-13 00:51:00,42.5,33.8,30.07,SW,218,1.0,3.0,71,0.00,,---,0.00,VWS V14.00,2013-05-13 04:51:00,
2013-05-13 00:56:00,42.3,33.6,30.07,SW,218,2.0,3.0,71,0.00,,---,0.00,VWS V14.00,2013-05-13 04:56:00,
2013-05-13 01:00:00,42.0,33.3,30.07,SW,218,0.0,3.0,71,0.00,,---,0.00,VWS V14.00,2013-05-13 05:00:00,
2013-05-13 01:01:00,42.0,33.3,30.07,SW,218,1.0,3.0,71,0.00,,---,0.00,VWS V14.00,2013-05-13 05:01:00,
2013-05-13 01:06:00,42.0,33.3,30.07,SW,218,0.0,3.0,71,0.00,,---,0.00,VWS V14.00,2013-05-13 05:06:00,
2013-05-13 01:11:00,41.9,33.5,30.07,SW,218,3.0,3.0,72,0.00,,---,0.00,VWS V14.00,2013-05-13 05:11:00,
2013-05-13 01:16:00,41.8,33.5,30.07,SW,218,0.0,3.0,72,0.00,,---,0.00,VWS V14.00,2013-05-13 05:16:00,
2013-05-13 01:21:00,41.5,33.5,30.07,SW,218,3.0,3.0,73,0.00,,---,0.00,VWS V14.00,2013-05-13 05:21:00,
2013-05-13 01:30:00,41.4,33.4,30.06,SW,225,1.0,3.0,73,0.00,,---,0.00,VWS V14.00,2013-05-13 05:30:00,
2013-05-13 02:00:00,40.6,33.3,30.06,SW,225,1.0,3.0,75,0.00,,---,0.00,VWS V14.00,2013-05-13 06:00:00,
2013-05-13 02:30:00,39.9,33.0,30.06,SW,225,1.0,3.0,76,0.00,,---,0.00,VWS V14.00,2013-05-13 06:30:00,
2013-05-13 03:00:00,39.6,33.0,30.06,SW,225,1.0,3.0,77,0.00,,---,0.00,VWS V14.00,2013-05-13 07:00:00,
2013-05-13 03:30:00,39.3,33.0,30.06,SW,225,1.0,2.0,78,0.00,,---,0.00,VWS V14.00,2013-05-13 07:30:00,
2013-05-13 04:00:00,39.0,33.0,30.07,SW,225,0.0,2.0,79,0.00,,---,0.00,VWS V14.00,2013-05-13 08:00:00,
2013-05-13 04:30:00,38.8,33.2,30.06,SW,225,1.0,3.0,80,0.00,,---,0.00,VWS V14.00,2013-05-13 08:30:00,
2013-05-13 05:00:00,38.5,33.2,30.07,SW,225,1.0,3.0,81,0.00,,---,0.00,VWS V14.00,2013-05-13 09:00:00,
2013-05-13 05:30:00,38.0,32.7,30.07,SW,225,1.0,3.0,81,0.00,,---,0.00,VWS V14.00,2013-05-13 09:30:00,
2013-05-13 06:00:00,37.7,33.0,30.07,SW,225,1.0,3.0,83,0.00,,---,0.00,VWS V14.00,2013-05-13 10:00:00,
2013-05-13 06:30:00,37.5,33.1,30.07,SW,225,1.0,3.0,84,0.00,,---,0.00,VWS V14.00,2013-05-13 10:30:00,
2013-05-13 07:00:00,38.2,33.8,30.08,SW,225,2.0,4.0,84,0.00,,---,0.00,VWS V14.00,2013-05-13 11:00:00,
2013-05-13 07:30:00,41.1,35.7,30.08,SW,225,0.0,2.0,81,0.00,,---,0.00,VWS V14.00,2013-05-13 11:30:00,
2013-05-13 08:00:00,45.6,36.4,30.07,SW,225,0.0,2.0,70,0.00,,---,0.00,VWS V14.00,2013-05-13 12:00:00,
2013-05-13 08:30:00,47.1,36.7,29.55,South,180,1.0,5.0,67,0.00,,---,0.00,VWS V14.00,2013-05-13 12:30:00,
2013-05-13 09:00:00,49.9,38.6,28.84,South,180,2.0,6.0,65,0.00,,---,0.00,VWS V14.00,2013-05-13 13:00:00,
2013-05-13 09:30:00,52.4,39.4,28.84,South,180,2.0,7.0,61,0.00,,---,0.00,VWS V14.00,2013-05-13 13:30:00,
2013-05-13 10:00:00,54.8,36.5,28.84,South,180,3.0,11.0,50,0.00,,---,0.00,VWS V14.00,2013-05-13 14:00:00,
2013-05-13 10:30:00,56.4,34.2,28.84,NW,315,4.0,13.0,43,0.00,,---,0.00,VWS V14.00,2013-05-13 14:30:00,
2013-05-13 11:00:00,57.4,33.3,20.16,West,270,4.0,13.0,40,0.00,,---,0.00,VWS V14.00,2013-05-13 15:00:00,
2013-05-13 11:30:00,58.4,34.2,20.16,WNW,292,4.0,13.0,40,0.00,,---,0.00,VWS V14.00,2013-05-13 15:30:00,
2013-05-13 12:00:00,59.0,32.8,20.16,NW,315,7.0,18.0,37,0.00,,---,0.00,VWS V14.00,2013-05-13 16:00:00,
2013-05-13 12:30:00,59.4,34.5,20.16,NNW,338,7.0,16.0,39,0.00,,---,0.00,VWS V14.00,2013-05-13 16:30:00,
2013-05-13 13:00:00,60.6,32.8,20.16,West,270,7.0,16.0,35,0.00,,---,0.00,VWS V14.00,2013-05-13 17:00:00,
2013-05-13 13:30:00,60.7,34.3,20.16,WNW,292,6.0,17.0,37,0.00,,---,0.00,VWS V14.00,2013-05-13 17:30:00,
2013-05-13 14:00:00,61.4,34.9,20.16,NNW,338,7.0,20.0,37,0.00,,---,0.00,VWS V14.00,2013-05-13 18:00:00,
2013-05-13 14:30:00,61.9,34.0,20.16,WNW,292,5.0,15.0,35,0.00,,---,0.00,VWS V14.00,2013-05-13 18:30:00,
2013-05-13 15:00:00,62.7,35.4,20.16,West,270,5.0,17.0,36,0.00,,---,0.00,VWS V14.00,2013-05-13 19:00:00,
2013-05-13 15:30:00,63.5,34.7,20.16,NW,315,4.0,14.0,34,0.00,,---,0.00,VWS V14.00,2013-05-13 19:30:00,
2013-05-13 16:00:00,63.9,37.1,28.31,South,180,5.0,19.0,37,0.00,,---,0.00,VWS V14.00,2013-05-13 20:00:00,
2013-05-13 16:30:00,63.9,35.7,28.31,West,270,4.0,18.0,35,0.00,,---,0.00,VWS V14.00,2013-05-13 20:30:00,
2013-05-13 17:00:00,64.3,35.4,28.31,NW,315,4.0,16.0,34,0.00,,---,0.00,VWS V14.00,2013-05-13 21:00:00,
2013-05-13 17:30:00,64.2,36.7,28.31,SSW,202,4.0,14.0,36,0.00,,---,0.00,VWS V14.00,2013-05-13 21:30:00,
2013-05-13 18:00:00,65.1,36.1,28.31,WNW,292,3.0,12.0,34,0.00,,---,0.00,VWS V14.00,2013-05-13 22:00:00,
2013-05-13 18:30:00,64.4,36.2,28.46,South,180,4.0,11.0,35,0.00,,---,0.00,VWS V14.00,2013-05-13 22:30:00,
2013-05-13 19:00:00,64.4,35.5,28.46,West,270,4.0,11.0,34,0.00,,---,0.00,VWS V14.00,2013-05-13 23:00:00,
2013-05-13 19:30:00,64.2,36.0,28.46,SSW,202,2.0,11.0,35,0.00,,---,0.00,VWS V14.00,2013-05-13 23:30:00,
2013-05-13 20:00:00,63.1,38.4,28.46,SW,225,1.0,7.0,40,0.00,,---,0.00,VWS V14.00,2013-05-14 00:00:00,
2013-05-13 20:30:00,58.7,36.9,28.46,SSE,158,0.0,3.0,44,0.00,,---,0.00,VWS V14.00,2013-05-14 00:30:00,
2013-05-13 21:00:00,56.1,36.7,29.17,SSE,158,1.0,4.0,48,0.00,,---,0.00,VWS V14.00,2013-05-14 01:00:00,
2013-05-13 21:30:00,54.9,37.6,29.17,SSW,202,2.0,4.0,52,0.00,,---,0.00,VWS V14.00,2013-05-14 01:30:00,
2013-05-13 22:00:00,54.1,37.4,30.02,SW,225,0.0,3.0,53,0.00,,---,0.00,VWS V14.00,2013-05-14 02:00:00,
2013-05-13 22:30:00,52.8,39.7,30.06,SW,225,0.0,3.0,61,0.00,,---,0.00,VWS V14.00,2013-05-14 02:30:00,
2013-05-13 23:00:00,51.5,40.9,30.07,SW,225,0.0,2.0,67,0.00,,---,0.00,VWS V14.00,2013-05-14 03:00:00,
2013-05-13 23:30:00,51.1,42.0,30.04,SW,225,0.0,2.0,71,0.00,,---,0.00,VWS V14.00,2013-05-14 03:30:00,